sensor_id;sensor_type;location;lat;lon;timestamp;P1;durP1;ratioP1;P2;durP2;ratioP2
15383;SDS011;7790;53.022;12.968;2023-12-20T00:01:24;1.20;;;0.80;;
15383;SDS011;7790;53.022;12.968;2023-12-20T00:05:25;0.70;;;0.70;;
15383;SDS011;7790;53.022;12.968;2023-12-20T00:09:26;1.27;;;0.43;;
15383;SDS011;7790;53.022;12.968;2023-12-20T00:13:26;0.70;;;0.70;;
15383;SDS011;7790;53.022;12.968;2023-12-20T00:17:27;2.03;;;0.60;;
15383;SDS011;7790;53.022;12.968;2023-12-20T00:21:28;0.77;;;0.60;;
15383;SDS011;7790;53.022;12.968;2023-12-20T00:25:29;1.17;;;0.63;;
15383;SDS011;7790;53.022;12.968;2023-12-20T00:29:30;0.87;;;0.70;;
15383;SDS011;7790;53.022;12.968;2023-12-20T00:33:30;0.97;;;0.50;;
15383;SDS011;7790;53.022;12.968;2023-12-20T00:37:31;0.40;;;0.40;;
15383;SDS011;7790;53.022;12.968;2023-12-20T00:41:32;0.50;;;0.50;;
15383;SDS011;7790;53.022;12.968;2023-12-20T00:45:33;1.30;;;0.40;;
15383;SDS011;7790;53.022;12.968;2023-12-20T00:49:33;0.70;;;0.47;;
15383;SDS011;7790;53.022;12.968;2023-12-20T00:53:34;0.40;;;0.40;;
15383;SDS011;7790;53.022;12.968;2023-12-20T00:57:35;1.60;;;0.70;;
15383;SDS011;7790;53.022;12.968;2023-12-20T01:01:36;0.40;;;0.40;;
15383;SDS011;7790;53.022;12.968;2023-12-20T01:05:37;1.33;;;0.57;;
15383;SDS011;7790;53.022;12.968;2023-12-20T01:09:38;0.50;;;0.40;;
15383;SDS011;7790;53.022;12.968;2023-12-20T01:13:38;0.50;;;0.50;;
15383;SDS011;7790;53.022;12.968;2023-12-20T01:17:39;0.73;;;0.43;;
15383;SDS011;7790;53.022;12.968;2023-12-20T01:21:40;0.90;;;0.40;;
15383;SDS011;7790;53.022;12.968;2023-12-20T01:25:41;0.80;;;0.50;;
15383;SDS011;7790;53.022;12.968;2023-12-20T01:29:42;0.50;;;0.30;;
15383;SDS011;7790;53.022;12.968;2023-12-20T01:33:42;0.73;;;0.40;;
15383;SDS011;7790;53.022;12.968;2023-12-20T01:37:43;0.40;;;0.30;;
15383;SDS011;7790;53.022;12.968;2023-12-20T01:41:44;0.37;;;0.37;;
15383;SDS011;7790;53.022;12.968;2023-12-20T01:45:46;1.07;;;0.70;;
15383;SDS011;7790;53.022;12.968;2023-12-20T01:49:48;0.60;;;0.23;;
15383;SDS011;7790;53.022;12.968;2023-12-20T01:53:49;0.80;;;0.50;;
15383;SDS011;7790;53.022;12.968;2023-12-20T01:57:51;1.03;;;0.50;;
15383;SDS011;7790;53.022;12.968;2023-12-20T02:01:52;0.47;;;0.43;;
15383;SDS011;7790;53.022;12.968;2023-12-20T02:05:53;0.20;;;0.20;;
15383;SDS011;7790;53.022;12.968;2023-12-20T02:09:53;0.40;;;0.40;;
15383;SDS011;7790;53.022;12.968;2023-12-20T02:13:55;0.23;;;0.23;;
15383;SDS011;7790;53.022;12.968;2023-12-20T02:17:56;0.70;;;0.40;;
15383;SDS011;7790;53.022;12.968;2023-12-20T02:22:09;0.63;;;0.40;;
15383;SDS011;7790;53.022;12.968;2023-12-20T02:26:11;0.43;;;0.40;;
15383;SDS011;7790;53.022;12.968;2023-12-20T02:30:14;1.43;;;0.27;;
15383;SDS011;7790;53.022;12.968;2023-12-20T02:34:15;0.53;;;0.50;;
15383;SDS011;7790;53.022;12.968;2023-12-20T02:38:16;0.87;;;0.47;;
15383;SDS011;7790;53.022;12.968;2023-12-20T02:42:16;0.40;;;0.40;;
15383;SDS011;7790;53.022;12.968;2023-12-20T02:46:17;0.23;;;0.23;;
15383;SDS011;7790;53.022;12.968;2023-12-20T02:50:18;0.30;;;0.30;;
15383;SDS011;7790;53.022;12.968;2023-12-20T02:54:20;0.20;;;0.20;;
15383;SDS011;7790;53.022;12.968;2023-12-20T02:58:21;0.97;;;0.57;;
15383;SDS011;7790;53.022;12.968;2023-12-20T03:02:22;0.70;;;0.40;;
15383;SDS011;7790;53.022;12.968;2023-12-20T03:06:23;0.93;;;0.60;;
15383;SDS011;7790;53.022;12.968;2023-12-20T03:10:24;0.30;;;0.30;;
15383;SDS011;7790;53.022;12.968;2023-12-20T03:14:25;1.10;;;0.23;;
15383;SDS011;7790;53.022;12.968;2023-12-20T03:18:26;0.30;;;0.30;;
15383;SDS011;7790;53.022;12.968;2023-12-20T03:22:28;0.70;;;0.43;;
15383;SDS011;7790;53.022;12.968;2023-12-20T03:26:29;0.30;;;0.30;;
15383;SDS011;7790;53.022;12.968;2023-12-20T03:30:30;0.30;;;0.30;;
15383;SDS011;7790;53.022;12.968;2023-12-20T03:34:31;0.40;;;0.20;;
15383;SDS011;7790;53.022;12.968;2023-12-20T03:38:31;2.57;;;0.50;;
15383;SDS011;7790;53.022;12.968;2023-12-20T03:42:32;0.27;;;0.20;;
15383;SDS011;7790;53.022;12.968;2023-12-20T03:46:33;0.50;;;0.30;;
15383;SDS011;7790;53.022;12.968;2023-12-20T03:50:34;0.27;;;0.20;;
15383;SDS011;7790;53.022;12.968;2023-12-20T03:54:35;0.87;;;0.30;;
15383;SDS011;7790;53.022;12.968;2023-12-20T04:03:58;0.80;;;0.57;;
15383;SDS011;7790;53.022;12.968;2023-12-20T04:07:59;0.43;;;0.30;;
15383;SDS011;7790;53.022;12.968;2023-12-20T04:12:01;0.50;;;0.40;;
15383;SDS011;7790;53.022;12.968;2023-12-20T04:16:02;0.77;;;0.40;;
15383;SDS011;7790;53.022;12.968;2023-12-20T04:20:03;0.40;;;0.40;;
15383;SDS011;7790;53.022;12.968;2023-12-20T04:24:05;0.40;;;0.40;;
15383;SDS011;7790;53.022;12.968;2023-12-20T04:28:06;0.67;;;0.63;;
15383;SDS011;7790;53.022;12.968;2023-12-20T04:32:07;0.63;;;0.57;;
15383;SDS011;7790;53.022;12.968;2023-12-20T04:36:08;0.70;;;0.70;;
15383;SDS011;7790;53.022;12.968;2023-12-20T04:40:09;0.93;;;0.87;;
15383;SDS011;7790;53.022;12.968;2023-12-20T04:44:10;1.33;;;0.80;;
15383;SDS011;7790;53.022;12.968;2023-12-20T04:48:11;4.40;;;0.80;;
15383;SDS011;7790;53.022;12.968;2023-12-20T04:52:12;1.00;;;0.80;;
15383;SDS011;7790;53.022;12.968;2023-12-20T04:56:13;2.23;;;1.00;;
15383;SDS011;7790;53.022;12.968;2023-12-20T05:00:14;0.80;;;0.80;;
15383;SDS011;7790;53.022;12.968;2023-12-20T05:04:15;1.03;;;0.80;;
15383;SDS011;7790;53.022;12.968;2023-12-20T05:08:16;1.37;;;0.80;;
15383;SDS011;7790;53.022;12.968;2023-12-20T05:12:17;0.80;;;0.80;;
15383;SDS011;7790;53.022;12.968;2023-12-20T05:16:18;0.93;;;0.93;;
15383;SDS011;7790;53.022;12.968;2023-12-20T05:20:19;0.87;;;0.80;;
15383;SDS011;7790;53.022;12.968;2023-12-20T05:24:20;1.03;;;0.93;;
15383;SDS011;7790;53.022;12.968;2023-12-20T05:28:21;0.83;;;0.83;;
15383;SDS011;7790;53.022;12.968;2023-12-20T05:32:23;1.43;;;1.00;;
15383;SDS011;7790;53.022;12.968;2023-12-20T05:36:24;0.93;;;0.90;;
15383;SDS011;7790;53.022;12.968;2023-12-20T05:40:25;1.10;;;1.00;;
15383;SDS011;7790;53.022;12.968;2023-12-20T05:44:26;2.03;;;0.90;;
15383;SDS011;7790;53.022;12.968;2023-12-20T05:48:27;0.80;;;0.80;;
15383;SDS011;7790;53.022;12.968;2023-12-20T05:52:27;2.20;;;0.90;;
15383;SDS011;7790;53.022;12.968;2023-12-20T05:56:28;3.40;;;0.80;;
15383;SDS011;7790;53.022;12.968;2023-12-20T06:00:29;1.00;;;0.90;;
15383;SDS011;7790;53.022;12.968;2023-12-20T06:04:30;1.90;;;0.63;;
15383;SDS011;7790;53.022;12.968;2023-12-20T06:08:31;1.20;;;0.80;;
15383;SDS011;7790;53.022;12.968;2023-12-20T06:12:32;2.03;;;0.80;;
15383;SDS011;7790;53.022;12.968;2023-12-20T06:16:35;1.13;;;0.90;;
15383;SDS011;7790;53.022;12.968;2023-12-20T06:20:36;1.57;;;0.70;;
15383;SDS011;7790;53.022;12.968;2023-12-20T06:24:37;1.43;;;0.90;;
15383;SDS011;7790;53.022;12.968;2023-12-20T06:28:38;2.47;;;0.80;;
15383;SDS011;7790;53.022;12.968;2023-12-20T06:32:39;1.07;;;0.70;;
15383;SDS011;7790;53.022;12.968;2023-12-20T06:36:40;1.20;;;0.83;;
15383;SDS011;7790;53.022;12.968;2023-12-20T06:40:40;4.30;;;0.93;;
15383;SDS011;7790;53.022;12.968;2023-12-20T06:44:43;2.47;;;0.70;;
15383;SDS011;7790;53.022;12.968;2023-12-20T06:48:43;4.93;;;1.30;;
15383;SDS011;7790;53.022;12.968;2023-12-20T06:52:44;2.50;;;1.00;;
15383;SDS011;7790;53.022;12.968;2023-12-20T06:56:45;1.53;;;0.70;;
15383;SDS011;7790;53.022;12.968;2023-12-20T07:00:47;2.00;;;0.70;;
15383;SDS011;7790;53.022;12.968;2023-12-20T07:04:48;2.40;;;1.00;;
15383;SDS011;7790;53.022;12.968;2023-12-20T07:08:49;3.87;;;1.20;;
15383;SDS011;7790;53.022;12.968;2023-12-20T07:12:50;1.50;;;0.90;;
15383;SDS011;7790;53.022;12.968;2023-12-20T07:16:52;2.23;;;0.90;;
15383;SDS011;7790;53.022;12.968;2023-12-20T07:20:54;4.23;;;1.10;;
15383;SDS011;7790;53.022;12.968;2023-12-20T07:24:55;3.07;;;0.90;;
15383;SDS011;7790;53.022;12.968;2023-12-20T07:28:56;2.50;;;0.80;;
15383;SDS011;7790;53.022;12.968;2023-12-20T07:32:59;1.33;;;0.77;;
15383;SDS011;7790;53.022;12.968;2023-12-20T07:37:01;1.20;;;0.60;;
15383;SDS011;7790;53.022;12.968;2023-12-20T07:41:02;1.43;;;0.80;;
15383;SDS011;7790;53.022;12.968;2023-12-20T07:45:03;1.30;;;1.00;;
15383;SDS011;7790;53.022;12.968;2023-12-20T07:49:04;3.67;;;1.13;;
15383;SDS011;7790;53.022;12.968;2023-12-20T07:53:05;1.43;;;0.83;;
15383;SDS011;7790;53.022;12.968;2023-12-20T07:57:06;3.83;;;0.90;;
15383;SDS011;7790;53.022;12.968;2023-12-20T08:01:07;1.17;;;0.77;;
15383;SDS011;7790;53.022;12.968;2023-12-20T08:05:08;0.60;;;0.60;;
15383;SDS011;7790;53.022;12.968;2023-12-20T08:09:09;1.37;;;0.87;;
15383;SDS011;7790;53.022;12.968;2023-12-20T08:13:10;3.03;;;0.80;;
15383;SDS011;7790;53.022;12.968;2023-12-20T08:17:11;2.70;;;1.27;;
15383;SDS011;7790;53.022;12.968;2023-12-20T08:21:12;4.73;;;1.20;;
15383;SDS011;7790;53.022;12.968;2023-12-20T08:25:13;4.17;;;0.93;;
15383;SDS011;7790;53.022;12.968;2023-12-20T08:29:15;2.00;;;0.80;;
15383;SDS011;7790;53.022;12.968;2023-12-20T08:33:16;3.50;;;0.80;;
15383;SDS011;7790;53.022;12.968;2023-12-20T08:37:17;1.87;;;1.00;;
15383;SDS011;7790;53.022;12.968;2023-12-20T08:41:18;1.20;;;0.73;;
15383;SDS011;7790;53.022;12.968;2023-12-20T08:45:20;2.47;;;1.20;;
15383;SDS011;7790;53.022;12.968;2023-12-20T08:49:21;3.13;;;0.80;;
15383;SDS011;7790;53.022;12.968;2023-12-20T08:53:22;2.87;;;0.83;;
15383;SDS011;7790;53.022;12.968;2023-12-20T08:57:23;3.50;;;1.13;;
15383;SDS011;7790;53.022;12.968;2023-12-20T09:01:25;1.93;;;0.87;;
15383;SDS011;7790;53.022;12.968;2023-12-20T09:05:26;1.70;;;0.80;;
15383;SDS011;7790;53.022;12.968;2023-12-20T09:09:27;1.73;;;0.80;;
15383;SDS011;7790;53.022;12.968;2023-12-20T09:13:28;2.17;;;1.10;;
15383;SDS011;7790;53.022;12.968;2023-12-20T09:17:28;2.00;;;1.00;;
15383;SDS011;7790;53.022;12.968;2023-12-20T09:21:29;3.30;;;1.20;;
15383;SDS011;7790;53.022;12.968;2023-12-20T09:25:30;3.73;;;1.00;;
15383;SDS011;7790;53.022;12.968;2023-12-20T09:29:31;3.03;;;1.07;;
15383;SDS011;7790;53.022;12.968;2023-12-20T09:33:32;2.43;;;1.00;;
15383;SDS011;7790;53.022;12.968;2023-12-20T09:37:34;4.97;;;1.67;;
15383;SDS011;7790;53.022;12.968;2023-12-20T09:41:36;4.70;;;1.77;;
15383;SDS011;7790;53.022;12.968;2023-12-20T09:45:44;2.90;;;1.50;;
15383;SDS011;7790;53.022;12.968;2023-12-20T09:49:47;5.67;;;1.87;;
15383;SDS011;7790;53.022;12.968;2023-12-20T09:53:48;4.03;;;1.83;;
15383;SDS011;7790;53.022;12.968;2023-12-20T09:57:50;7.53;;;1.90;;
15383;SDS011;7790;53.022;12.968;2023-12-20T10:01:51;5.23;;;1.80;;
15383;SDS011;7790;53.022;12.968;2023-12-20T10:05:56;4.87;;;1.87;;
15383;SDS011;7790;53.022;12.968;2023-12-20T10:09:58;6.20;;;2.43;;
15383;SDS011;7790;53.022;12.968;2023-12-20T10:13:59;8.60;;;2.60;;
15383;SDS011;7790;53.022;12.968;2023-12-20T10:18:03;5.47;;;2.37;;
15383;SDS011;7790;53.022;12.968;2023-12-20T10:22:05;5.70;;;1.83;;
15383;SDS011;7790;53.022;12.968;2023-12-20T10:26:06;5.67;;;2.10;;
15383;SDS011;7790;53.022;12.968;2023-12-20T10:30:07;6.93;;;2.80;;
15383;SDS011;7790;53.022;12.968;2023-12-20T10:34:08;6.20;;;2.10;;
15383;SDS011;7790;53.022;12.968;2023-12-20T10:38:09;6.77;;;2.30;;
15383;SDS011;7790;53.022;12.968;2023-12-20T10:42:12;5.87;;;2.37;;
15383;SDS011;7790;53.022;12.968;2023-12-20T10:46:15;8.80;;;2.30;;
15383;SDS011;7790;53.022;12.968;2023-12-20T10:50:16;5.93;;;2.50;;
15383;SDS011;7790;53.022;12.968;2023-12-20T10:54:19;6.70;;;2.23;;
15383;SDS011;7790;53.022;12.968;2023-12-20T10:58:20;6.97;;;2.23;;
15383;SDS011;7790;53.022;12.968;2023-12-20T11:02:22;3.83;;;1.87;;
15383;SDS011;7790;53.022;12.968;2023-12-20T11:06:40;6.10;;;2.23;;
15383;SDS011;7790;53.022;12.968;2023-12-20T11:10:51;5.10;;;1.93;;
15383;SDS011;7790;53.022;12.968;2023-12-20T11:15:06;4.87;;;2.13;;
15383;SDS011;7790;53.022;12.968;2023-12-20T11:19:07;5.33;;;1.77;;
15383;SDS011;7790;53.022;12.968;2023-12-20T11:23:08;3.63;;;1.77;;
15383;SDS011;7790;53.022;12.968;2023-12-20T11:27:09;2.83;;;1.60;;
15383;SDS011;7790;53.022;12.968;2023-12-20T11:31:12;3.70;;;1.70;;
15383;SDS011;7790;53.022;12.968;2023-12-20T11:39:20;3.53;;;1.40;;
15383;SDS011;7790;53.022;12.968;2023-12-20T11:43:37;2.77;;;1.53;;
15383;SDS011;7790;53.022;12.968;2023-12-20T11:47:39;3.60;;;1.77;;
15383;SDS011;7790;53.022;12.968;2023-12-20T11:51:41;3.30;;;1.63;;
15383;SDS011;7790;53.022;12.968;2023-12-20T11:55:42;4.27;;;1.30;;
15383;SDS011;7790;53.022;12.968;2023-12-20T11:59:43;2.20;;;1.30;;
15383;SDS011;7790;53.022;12.968;2023-12-20T12:03:44;2.40;;;1.30;;
15383;SDS011;7790;53.022;12.968;2023-12-20T12:07:44;5.07;;;1.23;;
15383;SDS011;7790;53.022;12.968;2023-12-20T12:11:45;5.50;;;1.73;;
15383;SDS011;7790;53.022;12.968;2023-12-20T12:15:47;3.97;;;1.57;;
15383;SDS011;7790;53.022;12.968;2023-12-20T12:19:48;3.67;;;1.33;;
15383;SDS011;7790;53.022;12.968;2023-12-20T12:23:49;1.70;;;1.13;;
15383;SDS011;7790;53.022;12.968;2023-12-20T12:27:50;4.10;;;1.50;;
15383;SDS011;7790;53.022;12.968;2023-12-20T12:31:51;2.47;;;1.30;;
15383;SDS011;7790;53.022;12.968;2023-12-20T12:35:52;4.20;;;1.40;;
15383;SDS011;7790;53.022;12.968;2023-12-20T12:39:53;1.93;;;1.10;;
15383;SDS011;7790;53.022;12.968;2023-12-20T12:43:55;2.23;;;1.27;;
15383;SDS011;7790;53.022;12.968;2023-12-20T12:47:55;4.93;;;1.30;;
15383;SDS011;7790;53.022;12.968;2023-12-20T12:51:56;1.60;;;1.20;;
15383;SDS011;7790;53.022;12.968;2023-12-20T12:55:58;2.60;;;1.50;;
15383;SDS011;7790;53.022;12.968;2023-12-20T12:59:59;2.77;;;1.23;;
15383;SDS011;7790;53.022;12.968;2023-12-20T13:04:00;1.77;;;1.10;;
15383;SDS011;7790;53.022;12.968;2023-12-20T13:08:04;3.07;;;1.20;;
15383;SDS011;7790;53.022;12.968;2023-12-20T13:12:06;3.00;;;1.20;;
15383;SDS011;7790;53.022;12.968;2023-12-20T13:16:07;1.33;;;0.80;;
15383;SDS011;7790;53.022;12.968;2023-12-20T13:20:08;1.53;;;1.10;;
15383;SDS011;7790;53.022;12.968;2023-12-20T13:24:09;1.70;;;1.00;;
15383;SDS011;7790;53.022;12.968;2023-12-20T13:28:10;1.23;;;1.00;;
15383;SDS011;7790;53.022;12.968;2023-12-20T13:32:11;1.83;;;0.97;;
15383;SDS011;7790;53.022;12.968;2023-12-20T13:36:12;2.13;;;1.03;;
15383;SDS011;7790;53.022;12.968;2023-12-20T13:40:13;1.67;;;1.00;;
15383;SDS011;7790;53.022;12.968;2023-12-20T13:44:14;0.70;;;0.70;;
15383;SDS011;7790;53.022;12.968;2023-12-20T13:48:15;1.47;;;0.87;;
15383;SDS011;7790;53.022;12.968;2023-12-20T13:52:16;1.20;;;1.00;;
15383;SDS011;7790;53.022;12.968;2023-12-20T13:56:16;1.57;;;1.10;;
15383;SDS011;7790;53.022;12.968;2023-12-20T14:00:20;1.70;;;1.00;;
15383;SDS011;7790;53.022;12.968;2023-12-20T14:04:21;2.07;;;1.20;;
15383;SDS011;7790;53.022;12.968;2023-12-20T14:08:22;2.00;;;0.70;;
15383;SDS011;7790;53.022;12.968;2023-12-20T14:12:23;1.40;;;0.80;;
15383;SDS011;7790;53.022;12.968;2023-12-20T14:16:24;0.97;;;0.87;;
15383;SDS011;7790;53.022;12.968;2023-12-20T14:20:25;0.93;;;0.80;;
15383;SDS011;7790;53.022;12.968;2023-12-20T14:24:27;0.93;;;0.80;;
15383;SDS011;7790;53.022;12.968;2023-12-20T14:28:28;2.30;;;0.90;;
15383;SDS011;7790;53.022;12.968;2023-12-20T14:32:29;1.03;;;0.90;;
15383;SDS011;7790;53.022;12.968;2023-12-20T14:36:30;1.10;;;0.60;;
15383;SDS011;7790;53.022;12.968;2023-12-20T14:40:31;0.80;;;0.53;;
15383;SDS011;7790;53.022;12.968;2023-12-20T14:44:32;1.93;;;0.93;;
15383;SDS011;7790;53.022;12.968;2023-12-20T14:48:32;0.87;;;0.80;;
15383;SDS011;7790;53.022;12.968;2023-12-20T14:52:34;1.50;;;0.70;;
15383;SDS011;7790;53.022;12.968;2023-12-20T14:56:35;0.90;;;0.80;;
15383;SDS011;7790;53.022;12.968;2023-12-20T15:00:36;1.53;;;0.70;;
15383;SDS011;7790;53.022;12.968;2023-12-20T15:04:37;1.13;;;0.70;;
15383;SDS011;7790;53.022;12.968;2023-12-20T15:08:38;0.60;;;0.60;;
15383;SDS011;7790;53.022;12.968;2023-12-20T15:12:39;1.50;;;0.80;;
15383;SDS011;7790;53.022;12.968;2023-12-20T15:16:40;0.80;;;0.80;;
15383;SDS011;7790;53.022;12.968;2023-12-20T15:20:41;1.03;;;0.80;;
15383;SDS011;7790;53.022;12.968;2023-12-20T15:24:43;0.93;;;0.60;;
15383;SDS011;7790;53.022;12.968;2023-12-20T15:28:46;0.87;;;0.77;;
15383;SDS011;7790;53.022;12.968;2023-12-20T15:32:47;1.53;;;0.70;;
15383;SDS011;7790;53.022;12.968;2023-12-20T15:36:48;0.90;;;0.60;;
15383;SDS011;7790;53.022;12.968;2023-12-20T15:40:49;0.90;;;0.67;;
15383;SDS011;7790;53.022;12.968;2023-12-20T15:44:49;1.57;;;0.70;;
15383;SDS011;7790;53.022;12.968;2023-12-20T15:48:51;4.60;;;0.83;;
15383;SDS011;7790;53.022;12.968;2023-12-20T15:52:52;2.63;;;0.80;;
15383;SDS011;7790;53.022;12.968;2023-12-20T15:56:53;0.83;;;0.67;;
15383;SDS011;7790;53.022;12.968;2023-12-20T16:00:54;0.80;;;0.63;;
15383;SDS011;7790;53.022;12.968;2023-12-20T16:04:55;1.20;;;0.87;;
15383;SDS011;7790;53.022;12.968;2023-12-20T16:08:56;0.87;;;0.60;;
15383;SDS011;7790;53.022;12.968;2023-12-20T16:12:57;1.33;;;0.70;;
15383;SDS011;7790;53.022;12.968;2023-12-20T16:16:57;1.63;;;0.80;;
15383;SDS011;7790;53.022;12.968;2023-12-20T16:21:00;1.47;;;0.83;;
15383;SDS011;7790;53.022;12.968;2023-12-20T16:25:01;1.13;;;0.57;;
15383;SDS011;7790;53.022;12.968;2023-12-20T16:29:02;2.07;;;0.70;;
15383;SDS011;7790;53.022;12.968;2023-12-20T16:33:03;0.93;;;0.70;;
15383;SDS011;7790;53.022;12.968;2023-12-20T16:37:04;1.00;;;0.90;;
15383;SDS011;7790;53.022;12.968;2023-12-20T16:41:04;0.83;;;0.53;;
15383;SDS011;7790;53.022;12.968;2023-12-20T16:45:05;2.00;;;0.70;;
15383;SDS011;7790;53.022;12.968;2023-12-20T16:49:07;0.80;;;0.70;;
15383;SDS011;7790;53.022;12.968;2023-12-20T16:53:08;0.63;;;0.53;;
15383;SDS011;7790;53.022;12.968;2023-12-20T16:57:08;2.80;;;0.90;;
15383;SDS011;7790;53.022;12.968;2023-12-20T17:01:09;1.83;;;0.90;;
15383;SDS011;7790;53.022;12.968;2023-12-20T17:05:11;1.20;;;0.70;;
15383;SDS011;7790;53.022;12.968;2023-12-20T17:09:12;1.53;;;0.70;;
15383;SDS011;7790;53.022;12.968;2023-12-20T17:13:13;1.20;;;0.90;;
15383;SDS011;7790;53.022;12.968;2023-12-20T17:17:14;1.40;;;0.70;;
15383;SDS011;7790;53.022;12.968;2023-12-20T17:21:15;4.03;;;1.07;;
15383;SDS011;7790;53.022;12.968;2023-12-20T17:25:16;3.40;;;1.53;;
15383;SDS011;7790;53.022;12.968;2023-12-20T17:29:17;5.30;;;1.47;;
15383;SDS011;7790;53.022;12.968;2023-12-20T17:33:18;8.07;;;1.90;;
15383;SDS011;7790;53.022;12.968;2023-12-20T17:37:19;5.27;;;1.17;;
15383;SDS011;7790;53.022;12.968;2023-12-20T17:41:20;2.93;;;1.17;;
15383;SDS011;7790;53.022;12.968;2023-12-20T17:45:20;9.67;;;1.60;;
15383;SDS011;7790;53.022;12.968;2023-12-20T17:49:22;3.93;;;1.73;;
15383;SDS011;7790;53.022;12.968;2023-12-20T17:53:22;7.00;;;1.63;;
15383;SDS011;7790;53.022;12.968;2023-12-20T17:57:23;6.90;;;1.93;;
15383;SDS011;7790;53.022;12.968;2023-12-20T18:01:24;6.83;;;1.50;;
15383;SDS011;7790;53.022;12.968;2023-12-20T18:05:25;5.07;;;1.30;;
15383;SDS011;7790;53.022;12.968;2023-12-20T18:09:26;3.67;;;1.63;;
15383;SDS011;7790;53.022;12.968;2023-12-20T18:13:27;4.57;;;1.40;;
15383;SDS011;7790;53.022;12.968;2023-12-20T18:17:28;6.13;;;1.53;;
15383;SDS011;7790;53.022;12.968;2023-12-20T18:21:29;4.50;;;1.60;;
15383;SDS011;7790;53.022;12.968;2023-12-20T18:25:29;4.67;;;1.40;;
15383;SDS011;7790;53.022;12.968;2023-12-20T18:29:30;6.00;;;1.43;;
15383;SDS011;7790;53.022;12.968;2023-12-20T18:33:31;2.60;;;1.63;;
15383;SDS011;7790;53.022;12.968;2023-12-20T18:37:35;1.60;;;1.03;;
15383;SDS011;7790;53.022;12.968;2023-12-20T18:41:36;3.67;;;1.30;;
15383;SDS011;7790;53.022;12.968;2023-12-20T18:45:37;2.60;;;1.40;;
15383;SDS011;7790;53.022;12.968;2023-12-20T18:49:38;3.13;;;1.30;;
15383;SDS011;7790;53.022;12.968;2023-12-20T18:53:38;4.23;;;1.40;;
15383;SDS011;7790;53.022;12.968;2023-12-20T18:57:41;1.93;;;1.20;;
15383;SDS011;7790;53.022;12.968;2023-12-20T19:01:41;2.50;;;1.10;;
15383;SDS011;7790;53.022;12.968;2023-12-20T19:05:43;2.80;;;1.30;;
15383;SDS011;7790;53.022;12.968;2023-12-20T19:09:43;5.60;;;1.27;;
15383;SDS011;7790;53.022;12.968;2023-12-20T19:13:44;2.13;;;0.97;;
15383;SDS011;7790;53.022;12.968;2023-12-20T19:17:46;2.97;;;1.20;;
15383;SDS011;7790;53.022;12.968;2023-12-20T19:21:47;4.90;;;1.43;;
15383;SDS011;7790;53.022;12.968;2023-12-20T19:25:48;4.67;;;1.47;;
15383;SDS011;7790;53.022;12.968;2023-12-20T19:29:49;5.83;;;1.43;;
15383;SDS011;7790;53.022;12.968;2023-12-20T19:33:49;5.80;;;1.70;;
15383;SDS011;7790;53.022;12.968;2023-12-20T19:37:52;5.13;;;1.57;;
15383;SDS011;7790;53.022;12.968;2023-12-20T19:41:53;4.93;;;1.60;;
15383;SDS011;7790;53.022;12.968;2023-12-20T19:45:54;2.63;;;1.17;;
15383;SDS011;7790;53.022;12.968;2023-12-20T19:49:55;2.20;;;1.40;;
15383;SDS011;7790;53.022;12.968;2023-12-20T19:53:57;3.23;;;1.10;;
15383;SDS011;7790;53.022;12.968;2023-12-20T19:57:58;6.03;;;1.63;;
15383;SDS011;7790;53.022;12.968;2023-12-20T20:01:59;4.70;;;1.40;;
15383;SDS011;7790;53.022;12.968;2023-12-20T20:06:00;4.13;;;1.23;;
15383;SDS011;7790;53.022;12.968;2023-12-20T20:10:01;3.60;;;1.10;;
15383;SDS011;7790;53.022;12.968;2023-12-20T20:14:02;3.53;;;1.10;;
15383;SDS011;7790;53.022;12.968;2023-12-20T20:18:03;1.50;;;1.00;;
15383;SDS011;7790;53.022;12.968;2023-12-20T20:22:04;3.73;;;1.30;;
15383;SDS011;7790;53.022;12.968;2023-12-20T20:26:05;3.23;;;1.27;;
15383;SDS011;7790;53.022;12.968;2023-12-20T20:30:06;1.30;;;0.80;;
15383;SDS011;7790;53.022;12.968;2023-12-20T20:34:07;1.73;;;0.90;;
15383;SDS011;7790;53.022;12.968;2023-12-20T20:38:08;2.93;;;1.20;;
15383;SDS011;7790;53.022;12.968;2023-12-20T20:42:09;3.23;;;0.97;;
15383;SDS011;7790;53.022;12.968;2023-12-20T20:46:10;2.27;;;0.67;;
15383;SDS011;7790;53.022;12.968;2023-12-20T20:50:11;2.57;;;1.00;;
15383;SDS011;7790;53.022;12.968;2023-12-20T20:54:12;2.00;;;1.10;;
15383;SDS011;7790;53.022;12.968;2023-12-20T20:58:13;4.10;;;1.40;;
15383;SDS011;7790;53.022;12.968;2023-12-20T21:02:14;1.80;;;1.00;;
15383;SDS011;7790;53.022;12.968;2023-12-20T21:06:15;1.93;;;1.17;;
15383;SDS011;7790;53.022;12.968;2023-12-20T21:10:16;2.83;;;0.83;;
15383;SDS011;7790;53.022;12.968;2023-12-20T21:14:18;1.53;;;0.90;;
15383;SDS011;7790;53.022;12.968;2023-12-20T21:18:19;1.57;;;0.80;;
15383;SDS011;7790;53.022;12.968;2023-12-20T21:22:20;1.53;;;0.90;;
15383;SDS011;7790;53.022;12.968;2023-12-20T21:26:21;2.10;;;0.80;;
15383;SDS011;7790;53.022;12.968;2023-12-20T21:30:22;1.97;;;1.10;;
15383;SDS011;7790;53.022;12.968;2023-12-20T21:34:22;0.83;;;0.70;;
15383;SDS011;7790;53.022;12.968;2023-12-20T21:38:23;0.93;;;0.80;;
15383;SDS011;7790;53.022;12.968;2023-12-20T21:42:24;2.27;;;0.80;;
15383;SDS011;7790;53.022;12.968;2023-12-20T21:46:25;1.37;;;0.80;;
15383;SDS011;7790;53.022;12.968;2023-12-20T21:50:26;3.50;;;1.00;;
15383;SDS011;7790;53.022;12.968;2023-12-20T21:54:27;1.83;;;0.90;;
15383;SDS011;7790;53.022;12.968;2023-12-20T21:58:28;1.40;;;0.90;;
15383;SDS011;7790;53.022;12.968;2023-12-20T22:02:29;0.90;;;0.80;;
15383;SDS011;7790;53.022;12.968;2023-12-20T22:06:30;1.47;;;0.87;;
15383;SDS011;7790;53.022;12.968;2023-12-20T22:10:31;1.30;;;0.83;;
15383;SDS011;7790;53.022;12.968;2023-12-20T22:14:32;1.63;;;0.80;;
15383;SDS011;7790;53.022;12.968;2023-12-20T22:18:33;1.20;;;0.67;;
15383;SDS011;7790;53.022;12.968;2023-12-20T22:22:34;2.53;;;0.97;;
15383;SDS011;7790;53.022;12.968;2023-12-20T22:26:35;2.83;;;0.83;;
15383;SDS011;7790;53.022;12.968;2023-12-20T22:30:35;1.40;;;0.90;;
15383;SDS011;7790;53.022;12.968;2023-12-20T22:34:37;1.33;;;0.70;;
15383;SDS011;7790;53.022;12.968;2023-12-20T22:38:41;1.27;;;0.77;;
15383;SDS011;7790;53.022;12.968;2023-12-20T22:42:41;0.93;;;0.67;;
15383;SDS011;7790;53.022;12.968;2023-12-20T22:46:42;0.83;;;0.73;;
15383;SDS011;7790;53.022;12.968;2023-12-20T22:50:43;1.03;;;0.73;;
15383;SDS011;7790;53.022;12.968;2023-12-20T22:54:44;1.07;;;0.87;;
15383;SDS011;7790;53.022;12.968;2023-12-20T22:58:45;1.43;;;0.80;;
15383;SDS011;7790;53.022;12.968;2023-12-20T23:02:46;4.07;;;1.00;;
15383;SDS011;7790;53.022;12.968;2023-12-20T23:06:47;1.10;;;0.80;;
15383;SDS011;7790;53.022;12.968;2023-12-20T23:10:47;1.43;;;0.70;;
15383;SDS011;7790;53.022;12.968;2023-12-20T23:14:48;1.53;;;0.60;;
15383;SDS011;7790;53.022;12.968;2023-12-20T23:18:49;0.60;;;0.60;;
15383;SDS011;7790;53.022;12.968;2023-12-20T23:22:50;1.77;;;0.80;;
15383;SDS011;7790;53.022;12.968;2023-12-20T23:26:51;0.90;;;0.70;;
15383;SDS011;7790;53.022;12.968;2023-12-20T23:30:52;1.13;;;0.63;;
15383;SDS011;7790;53.022;12.968;2023-12-20T23:34:53;1.10;;;0.57;;
15383;SDS011;7790;53.022;12.968;2023-12-20T23:38:54;0.90;;;0.50;;
15383;SDS011;7790;53.022;12.968;2023-12-20T23:42:55;0.60;;;0.60;;
15383;SDS011;7790;53.022;12.968;2023-12-20T23:46:55;0.77;;;0.50;;
15383;SDS011;7790;53.022;12.968;2023-12-20T23:50:56;1.20;;;0.70;;
15383;SDS011;7790;53.022;12.968;2023-12-20T23:54:58;0.80;;;0.50;;
15383;SDS011;7790;53.022;12.968;2023-12-20T23:59:00;1.27;;;0.50;;
